createdAt,value
2022-10-14T00:02:16.764Z,13.10
2022-10-14T00:04:44.382Z,13.08
2022-10-14T00:07:12.055Z,13.07
2022-10-14T00:09:41.998Z,13.09
2022-10-14T00:12:11.025Z,13.07
2022-10-14T00:14:38.653Z,13.08
2022-10-14T00:17:06.347Z,13.10
2022-10-14T00:19:33.906Z,13.08
2022-10-14T00:22:01.526Z,13.04
2022-10-14T00:24:29.236Z,12.99
2022-10-14T00:26:56.843Z,13.03
2022-10-14T00:29:25.763Z,13.00
2022-10-14T00:31:53.692Z,13.04
2022-10-14T00:34:21.326Z,12.98
2022-10-14T00:36:48.998Z,12.99
2022-10-14T00:39:16.653Z,12.98
2022-10-14T00:41:44.883Z,12.96
2022-10-14T00:44:45.726Z,12.93
2022-10-14T00:47:14.581Z,12.90
2022-10-14T00:49:43.416Z,12.89
2022-10-14T00:52:15.371Z,12.99
2022-10-14T00:54:45.535Z,12.95
2022-10-14T00:57:13.208Z,12.95
2022-10-14T00:59:40.797Z,12.93
2022-10-14T01:02:08.301Z,12.95
2022-10-14T01:04:39.011Z,13.01
2022-10-14T01:07:12.273Z,13.01
2022-10-14T01:09:42.475Z,13.06
2022-10-14T01:12:28.581Z,13.09
2022-10-14T01:15:04.942Z,13.08
2022-10-14T01:17:39.620Z,13.10
2022-10-14T01:20:39.661Z,13.03
2022-10-14T01:23:19.197Z,13.00
2022-10-14T01:25:54.574Z,12.97
2022-10-14T01:28:27.058Z,13.02
2022-10-14T01:30:59.558Z,13.03
2022-10-14T01:33:29.395Z,13.07
2022-10-14T01:36:02.658Z,13.07
2022-10-14T01:38:32.803Z,13.18
2022-10-14T01:41:04.913Z,13.16
2022-10-14T01:43:33.319Z,13.19
2022-10-14T01:46:04.516Z,13.15
2022-10-14T01:48:33.931Z,13.16
2022-10-14T01:51:03.036Z,13.13
2022-10-14T01:53:33.086Z,13.17
2022-10-14T01:56:00.859Z,13.10
2022-10-14T01:58:29.115Z,13.15
2022-10-14T02:00:57.461Z,13.16
2022-10-14T02:03:26.252Z,13.17
2022-10-14T02:05:56.515Z,13.17
2022-10-14T02:08:30.308Z,13.16
2022-10-14T02:11:07.974Z,13.12
2022-10-14T02:13:45.080Z,13.12
2022-10-14T02:16:17.449Z,13.10
2022-10-14T02:18:52.536Z,13.13
2022-10-14T02:21:24.114Z,13.19
2022-10-14T02:23:56.788Z,13.14
2022-10-14T02:26:25.541Z,13.19
2022-10-14T02:28:54.525Z,13.10
2022-10-14T02:31:22.128Z,13.00
2022-10-14T02:33:53.031Z,13.08
2022-10-14T02:36:22.997Z,13.14
2022-10-14T02:38:51.398Z,13.13
2022-10-14T02:41:20.788Z,13.15
2022-10-14T02:43:48.266Z,13.18
2022-10-14T02:46:15.736Z,13.15
2022-10-14T02:48:43.202Z,13.16
2022-10-14T02:51:12.011Z,13.19
2022-10-14T02:53:39.506Z,13.14
2022-10-14T02:56:07.865Z,13.22
2022-10-14T02:58:35.410Z,13.14
2022-10-14T03:01:02.930Z,13.17
2022-10-14T03:03:30.409Z,13.14
2022-10-14T03:05:57.848Z,13.14
2022-10-14T03:08:26.670Z,13.15
2022-10-14T03:10:54.146Z,13.14
2022-10-14T03:13:21.681Z,13.11
2022-10-14T03:15:49.719Z,13.13
2022-10-14T03:18:17.482Z,13.12
2022-10-14T03:20:45.485Z,13.13
2022-10-14T03:23:14.515Z,13.12
2022-10-14T03:25:44.673Z,13.18
2022-10-14T03:28:12.232Z,13.18
2022-10-14T03:30:39.946Z,13.17
2022-10-14T03:33:08.440Z,13.22
2022-10-14T03:35:36.018Z,13.25
2022-10-14T03:38:03.904Z,13.23
2022-10-14T03:40:31.525Z,13.25
2022-10-14T03:43:01.347Z,13.26
2022-10-14T03:45:29.380Z,13.21
2022-10-14T03:47:57.147Z,13.12
2022-10-14T03:50:24.698Z,13.08
2022-10-14T03:52:55.600Z,13.16
2022-10-14T03:55:23.407Z,13.17
2022-10-14T03:57:51.137Z,13.11
2022-10-14T04:00:20.153Z,13.13
2022-10-14T04:02:47.745Z,13.12
2022-10-14T04:05:15.399Z,13.18
2022-10-14T04:07:43.166Z,13.13
2022-10-14T04:10:10.707Z,13.10
2022-10-14T04:12:40.064Z,13.12
2022-10-14T04:15:08.141Z,13.10
2022-10-14T04:17:36.945Z,13.11
2022-10-14T04:20:05.105Z,13.09
2022-10-14T04:22:33.213Z,13.07
2022-10-14T04:25:00.754Z,13.01
2022-10-14T04:27:28.449Z,13.02
2022-10-14T04:29:55.896Z,12.96
2022-10-14T04:32:23.684Z,13.04
2022-10-14T04:34:53.485Z,13.01
2022-10-14T04:37:20.955Z,13.01
2022-10-14T04:39:48.709Z,13.02
2022-10-14T04:42:16.193Z,13.04
2022-10-14T04:44:43.676Z,13.07
2022-10-14T04:47:11.148Z,13.05
2022-10-14T04:49:38.594Z,13.13
2022-10-14T04:52:07.477Z,13.13
2022-10-14T04:54:34.975Z,13.08
2022-10-14T04:57:02.644Z,13.06
2022-10-14T04:59:30.112Z,13.14
2022-10-14T05:01:57.623Z,13.15
2022-10-14T05:04:25.132Z,13.09
2022-10-14T05:06:52.568Z,13.07
2022-10-14T05:09:21.399Z,13.06
2022-10-14T05:11:48.905Z,13.07
2022-10-14T05:14:16.416Z,13.05
2022-10-14T05:16:43.853Z,13.04
2022-10-14T05:19:11.391Z,13.05
2022-10-14T05:21:38.941Z,13.06
2022-10-14T05:24:06.887Z,13.16
2022-10-14T05:26:35.650Z,13.12
2022-10-14T05:29:03.105Z,13.09
2022-10-14T05:31:30.566Z,12.98
2022-10-14T05:33:58.027Z,12.98
2022-10-14T05:36:25.496Z,13.03
2022-10-14T05:38:56.293Z,13.01
2022-10-14T05:41:24.043Z,13.00
2022-10-14T05:43:52.850Z,13.05
2022-10-14T05:46:20.402Z,12.98
2022-10-14T05:48:47.853Z,12.99
2022-10-14T05:51:15.522Z,13.02
2022-10-14T05:53:43.540Z,13.02
2022-10-14T05:56:11.198Z,13.02
2022-10-14T05:58:38.693Z,13.02
2022-10-14T06:01:09.303Z,13.03
2022-10-14T06:03:36.913Z,13.07
2022-10-14T06:06:04.406Z,13.09
2022-10-14T06:08:31.868Z,13.08
2022-10-14T06:10:59.380Z,13.07
2022-10-14T06:13:27.374Z,13.10
2022-10-14T06:15:54.860Z,13.15
2022-10-14T06:18:23.681Z,13.17
2022-10-14T06:20:54.402Z,13.26
2022-10-14T06:23:22.152Z,13.21
2022-10-14T06:25:49.620Z,13.25
2022-10-14T06:28:17.214Z,13.17
2022-10-14T06:30:50.268Z,13.15
2022-10-14T06:33:17.797Z,13.22
2022-10-14T06:35:46.788Z,13.24
2022-10-14T06:38:14.490Z,13.24
2022-10-14T06:40:42.007Z,13.16
2022-10-14T06:43:10.167Z,13.14
2022-10-14T06:45:37.647Z,13.21
2022-10-14T06:48:05.767Z,13.27
2022-10-14T06:50:33.258Z,13.27
2022-10-14T06:53:02.068Z,13.27
2022-10-14T06:55:29.758Z,13.33
2022-10-14T06:57:57.251Z,13.23
2022-10-14T07:00:25.248Z,13.24
2022-10-14T07:02:52.805Z,13.30
2022-10-14T07:05:20.328Z,13.33
2022-10-14T07:07:47.866Z,13.39
2022-10-14T07:10:16.984Z,13.45
2022-10-14T07:12:44.538Z,13.48
2022-10-14T07:15:12.048Z,13.48
2022-10-14T07:17:40.162Z,13.44
2022-10-14T07:20:08.705Z,13.51
2022-10-14T07:22:38.884Z,13.50
2022-10-14T07:25:08.072Z,13.46
2022-10-14T07:27:36.992Z,13.53
2022-10-14T07:30:05.990Z,13.57
2022-10-14T07:32:36.807Z,13.55
2022-10-14T07:35:04.759Z,13.61
2022-10-14T07:37:32.236Z,13.62
2022-10-14T07:39:59.705Z,13.62
2022-10-14T07:42:27.200Z,13.64
2022-10-14T07:44:57.589Z,13.70
2022-10-14T07:47:25.102Z,13.71
2022-10-14T07:49:52.575Z,13.72
2022-10-14T07:52:20.059Z,13.71
2022-10-14T07:54:47.821Z,13.64
2022-10-14T07:57:16.693Z,13.76
2022-10-14T07:59:44.207Z,13.77
2022-10-14T08:02:13.697Z,13.69
2022-10-14T08:04:41.272Z,13.78
2022-10-14T08:07:08.797Z,13.72
2022-10-14T08:09:37.053Z,13.64
2022-10-14T08:15:11.314Z,13.72
2022-10-14T08:17:40.180Z,13.74
2022-10-14T08:20:08.566Z,13.78
2022-10-14T08:22:36.107Z,13.93
2022-10-14T08:25:03.655Z,13.95
2022-10-14T08:27:31.242Z,13.97
2022-10-14T08:29:58.731Z,14.01
2022-10-14T08:32:26.227Z,14.03
2022-10-14T08:34:55.880Z,14.13
2022-10-14T08:37:23.715Z,14.17
2022-10-14T08:39:51.173Z,14.26
2022-10-14T08:42:29.389Z,14.16
2022-10-14T08:44:59.047Z,14.16
2022-10-14T08:47:38.837Z,14.16
2022-10-14T08:50:10.890Z,14.14
2022-10-14T08:52:41.172Z,14.15
2022-10-14T08:55:18.836Z,14.16
2022-10-14T08:57:50.463Z,14.16
2022-10-14T09:00:18.930Z,14.21
2022-10-14T09:02:48.619Z,14.28
2022-10-14T09:05:19.228Z,14.32
2022-10-14T09:07:47.445Z,14.37
2022-10-14T09:10:19.974Z,14.31
2022-10-14T09:12:47.733Z,14.38
2022-10-14T09:15:21.666Z,14.36
2022-10-14T09:17:53.559Z,14.30
2022-10-14T09:20:23.533Z,14.29
2022-10-14T09:22:59.158Z,14.35
2022-10-14T09:25:27.040Z,14.53
2022-10-14T09:27:54.537Z,14.60
2022-10-14T09:30:22.202Z,14.55
2022-10-14T09:32:51.124Z,14.49
2022-10-14T09:35:25.802Z,14.43
2022-10-14T09:37:54.003Z,14.52
2022-10-14T09:40:33.569Z,14.59
2022-10-14T09:43:05.385Z,14.56
2022-10-14T09:45:49.388Z,14.63
2022-10-14T09:48:18.694Z,14.73
2022-10-14T09:50:52.590Z,14.72
2022-10-14T09:53:27.134Z,14.79
2022-10-14T09:55:56.364Z,14.93
2022-10-14T09:58:30.175Z,15.08
2022-10-14T10:00:58.343Z,15.08
2022-10-14T10:03:27.656Z,15.14
2022-10-14T10:06:05.889Z,15.29
2022-10-14T10:08:34.135Z,15.20
2022-10-14T10:11:06.743Z,15.32
2022-10-14T10:13:44.420Z,15.42
2022-10-14T10:16:21.915Z,15.47
2022-10-14T10:18:49.529Z,15.66
2022-10-14T10:21:19.981Z,15.68
2022-10-14T10:23:52.690Z,15.60
2022-10-14T10:26:25.928Z,15.64
2022-10-14T10:28:55.153Z,15.44
2022-10-14T10:31:33.183Z,15.56
2022-10-14T10:34:07.776Z,15.53
2022-10-14T10:36:39.336Z,15.45
2022-10-14T10:39:15.366Z,15.47
2022-10-14T10:41:58.379Z,15.63
2022-10-14T10:44:51.283Z,15.67
2022-10-14T10:47:32.960Z,15.48
2022-10-14T10:50:10.089Z,15.48
2022-10-14T10:52:49.287Z,15.50
2022-10-14T10:55:24.118Z,15.50
2022-10-14T10:58:02.618Z,15.49
2022-10-14T11:00:36.870Z,15.58
2022-10-14T11:03:18.093Z,15.64
2022-10-14T11:05:54.064Z,15.78
2022-10-14T11:08:50.091Z,15.82
2022-10-14T11:11:40.421Z,15.77
2022-10-14T11:14:17.042Z,15.61
2022-10-14T11:16:50.067Z,15.59
2022-10-14T11:19:22.443Z,15.55
2022-10-14T11:21:55.375Z,15.48
2022-10-14T11:24:29.722Z,15.51
2022-10-14T11:27:01.942Z,15.54
2022-10-14T11:30:06.761Z,15.61
2022-10-14T11:32:42.433Z,15.51
2022-10-14T11:35:19.842Z,15.45
2022-10-14T11:37:56.941Z,15.40
2022-10-14T11:40:28.831Z,15.49
2022-10-14T11:43:10.928Z,15.45
2022-10-14T11:45:46.603Z,15.43
2022-10-14T11:48:23.966Z,15.38
2022-10-14T11:50:56.196Z,15.38
2022-10-14T11:53:27.332Z,15.47
2022-10-14T11:56:01.904Z,15.46
2022-10-14T11:58:31.120Z,15.53
2022-10-14T12:01:04.365Z,15.40
2022-10-14T12:03:43.712Z,15.42
2022-10-14T12:06:13.999Z,15.49
2022-10-14T12:08:50.085Z,15.36
2022-10-14T12:11:27.002Z,15.23
2022-10-14T12:14:00.805Z,15.15
2022-10-14T12:16:28.835Z,15.17
2022-10-14T12:18:57.745Z,15.16
2022-10-14T12:21:30.592Z,15.05
2022-10-14T12:24:00.800Z,15.18
2022-10-14T12:26:46.951Z,15.04
2022-10-14T12:29:15.757Z,14.97
2022-10-14T12:31:49.899Z,14.86
2022-10-14T12:34:37.835Z,14.79
2022-10-14T12:37:45.189Z,14.79
2022-10-14T12:40:29.537Z,14.86
2022-10-14T12:43:04.052Z,15.00
2022-10-14T12:45:33.611Z,14.94
2022-10-14T12:48:07.415Z,14.85
2022-10-14T12:50:37.457Z,14.82
2022-10-14T12:53:06.911Z,14.79
2022-10-14T12:55:38.860Z,14.83
2022-10-14T12:58:07.804Z,14.77
2022-10-14T13:00:37.425Z,14.73
2022-10-14T13:03:06.409Z,14.79
2022-10-14T13:05:37.004Z,14.73
2022-10-14T13:08:12.051Z,14.73
2022-10-14T13:10:48.345Z,14.86
2022-10-14T13:14:04.795Z,14.71
2022-10-14T13:17:15.007Z,14.86
2022-10-14T13:19:44.991Z,14.87
2022-10-14T13:22:38.969Z,14.84
2022-10-14T13:25:15.938Z,14.81
2022-10-14T13:28:13.347Z,14.81
2022-10-14T13:30:51.510Z,14.85
2022-10-14T13:33:24.747Z,14.83
2022-10-14T13:36:00.329Z,14.75
2022-10-14T13:38:28.937Z,14.73
2022-10-14T13:40:57.961Z,14.82
2022-10-14T13:43:29.221Z,14.77
2022-10-14T13:46:03.385Z,14.79
2022-10-14T13:48:34.673Z,14.76
2022-10-14T13:51:31.827Z,14.70
2022-10-14T13:54:10.827Z,14.66
2022-10-14T13:56:38.578Z,14.63
2022-10-14T13:59:39.273Z,14.63
2022-10-14T14:02:14.327Z,14.64
2022-10-14T14:04:48.753Z,14.71
2022-10-14T14:10:08.910Z,14.72
2022-10-14T14:12:36.576Z,14.70
2022-10-14T14:15:05.426Z,14.70
2022-10-14T14:17:33.739Z,14.76
2022-10-14T14:20:10.878Z,14.83
2022-10-14T14:22:43.411Z,14.89
2022-10-14T14:25:33.439Z,14.80
2022-10-14T14:28:02.044Z,14.81
2022-10-14T14:30:31.068Z,14.92
2022-10-14T14:33:00.581Z,14.94
2022-10-14T14:35:30.005Z,15.06
2022-10-14T14:37:58.041Z,15.04
2022-10-14T14:40:27.256Z,15.01
2022-10-14T14:43:00.570Z,14.98
2022-10-14T14:45:30.485Z,15.08
2022-10-14T14:47:59.431Z,15.07
2022-10-14T14:50:31.755Z,15.07
2022-10-14T14:53:03.276Z,15.14
2022-10-14T14:55:39.069Z,15.11
2022-10-14T14:58:14.429Z,15.01
2022-10-14T15:00:45.792Z,15.01
2022-10-14T15:03:13.791Z,15.00
2022-10-14T15:05:42.715Z,14.99
2022-10-14T15:08:20.752Z,15.05
2022-10-14T15:10:50.359Z,14.99
2022-10-14T15:13:45.462Z,15.11
2022-10-14T15:16:13.073Z,15.05
2022-10-14T15:18:43.410Z,15.01
2022-10-14T15:21:20.216Z,15.08
2022-10-14T15:24:03.232Z,15.06
2022-10-14T15:26:34.182Z,15.07
2022-10-14T15:32:06.799Z,15.09
2022-10-14T15:34:35.645Z,15.06
2022-10-14T15:37:04.671Z,15.06
2022-10-14T15:39:32.365Z,15.02
2022-10-14T15:42:00.595Z,15.12
2022-10-14T15:44:28.474Z,14.99
2022-10-14T15:47:15.387Z,14.96
2022-10-14T15:49:45.950Z,15.04
2022-10-14T15:52:18.511Z,14.95
2022-10-14T15:54:48.876Z,14.96
2022-10-14T15:57:16.946Z,14.96
2022-10-14T15:59:44.714Z,14.95
2022-10-14T16:02:16.100Z,14.95
2022-10-14T16:05:00.557Z,14.94
2022-10-14T16:07:32.677Z,14.99
2022-10-14T16:10:00.334Z,15.02
2022-10-14T16:12:27.942Z,14.95
2022-10-14T16:14:55.475Z,14.91
2022-10-14T16:17:23.283Z,14.91
2022-10-14T16:19:50.923Z,14.93
2022-10-14T16:22:18.388Z,15.03
2022-10-14T16:24:47.297Z,14.99
2022-10-14T16:27:14.782Z,15.00
2022-10-14T16:29:42.369Z,14.93
2022-10-14T16:32:10.531Z,14.95
2022-10-14T16:34:38.095Z,14.90
2022-10-14T16:37:07.003Z,14.92
2022-10-14T16:39:34.482Z,14.90
2022-10-14T16:42:03.383Z,14.90
2022-10-14T16:44:31.074Z,14.89
2022-10-14T16:47:13.284Z,14.91
2022-10-14T16:49:41.304Z,14.88
2022-10-14T16:52:09.494Z,14.92
2022-10-14T16:54:37.366Z,14.98
2022-10-14T16:57:07.068Z,14.88
2022-10-14T16:59:37.871Z,14.78
2022-10-14T17:02:06.088Z,14.77
2022-10-14T17:04:33.701Z,14.84
2022-10-14T17:07:07.094Z,14.79
2022-10-14T17:09:35.838Z,14.77
2022-10-14T17:12:05.004Z,14.74
2022-10-14T17:14:34.877Z,14.75
2022-10-14T17:17:02.448Z,14.77
2022-10-14T17:19:31.073Z,14.72
2022-10-14T17:21:59.552Z,14.73
2022-10-14T17:24:27.491Z,14.75
2022-10-14T17:26:55.142Z,14.72
2022-10-14T17:29:22.825Z,14.72
2022-10-14T17:31:51.942Z,14.74
2022-10-14T17:34:19.555Z,14.73
2022-10-14T17:36:47.135Z,14.73
2022-10-14T17:39:22.807Z,14.71
2022-10-14T17:41:56.890Z,14.74
2022-10-14T17:44:24.614Z,14.73
2022-10-14T17:46:54.029Z,14.71
2022-10-14T17:49:21.986Z,14.74
2022-10-14T17:51:49.844Z,14.74
2022-10-14T17:54:17.475Z,14.76
2022-10-14T17:56:45.159Z,14.77
2022-10-14T17:59:14.073Z,14.75
2022-10-14T18:04:30.721Z,14.75
2022-10-14T18:06:58.880Z,14.71
2022-10-14T18:09:26.428Z,14.77
2022-10-14T18:12:08.332Z,14.78
2022-10-14T18:14:36.569Z,14.90
2022-10-14T18:17:05.021Z,14.87
2022-10-14T18:19:34.922Z,14.87
2022-10-14T18:22:02.757Z,14.81
2022-10-14T18:24:30.525Z,14.82
2022-10-14T18:26:58.143Z,14.92
2022-10-14T18:29:26.008Z,14.82
2022-10-14T18:31:53.700Z,14.79
2022-10-14T18:34:22.376Z,14.79
2022-10-14T18:36:51.399Z,14.81
2022-10-14T18:39:20.220Z,14.79
2022-10-14T18:41:47.815Z,14.77
2022-10-14T18:44:15.492Z,14.77
2022-10-14T18:46:43.143Z,14.72
2022-10-14T18:49:12.354Z,14.73
2022-10-14T18:51:41.206Z,14.76
2022-10-14T18:54:13.725Z,14.73
2022-10-14T18:56:41.807Z,14.77
2022-10-14T18:59:11.062Z,14.74
2022-10-14T19:01:39.416Z,14.75
2022-10-14T19:04:08.558Z,14.75
2022-10-14T19:06:37.068Z,14.76
2022-10-14T19:09:05.388Z,14.74
2022-10-14T19:11:35.542Z,14.84
2022-10-14T19:14:05.217Z,14.76
2022-10-14T19:16:33.930Z,14.75
2022-10-14T19:19:03.975Z,14.77
2022-10-14T19:21:32.275Z,14.71
2022-10-14T19:24:01.514Z,14.80
2022-10-14T19:26:30.947Z,14.80
2022-10-14T19:29:01.120Z,14.72
2022-10-14T19:31:30.801Z,14.67
2022-10-14T19:33:58.939Z,14.68
2022-10-14T19:36:27.181Z,14.70
2022-10-14T19:38:57.793Z,14.65
2022-10-14T19:41:26.220Z,14.67
2022-10-14T19:43:54.462Z,14.64
2022-10-14T19:46:27.146Z,14.67
2022-10-14T19:48:56.752Z,14.64
2022-10-14T19:51:24.603Z,14.66
2022-10-14T19:53:52.477Z,14.63
2022-10-14T19:56:20.662Z,14.70
2022-10-14T19:58:51.108Z,14.66
2022-10-14T20:01:19.589Z,14.65
2022-10-14T20:03:48.622Z,14.66
2022-10-14T20:06:16.506Z,14.65
2022-10-14T20:08:45.379Z,14.77
2022-10-14T20:11:15.111Z,14.71
2022-10-14T20:13:44.356Z,14.75
2022-10-14T20:16:12.727Z,14.70
2022-10-14T20:18:40.435Z,14.74
2022-10-14T20:21:11.768Z,14.70
2022-10-14T20:23:40.340Z,14.70
2022-10-14T20:26:09.698Z,14.76
2022-10-14T20:28:37.743Z,14.73
2022-10-14T20:31:07.119Z,14.68
2022-10-14T20:33:34.744Z,14.66
2022-10-14T20:36:02.852Z,14.56
2022-10-14T20:38:32.044Z,14.62
2022-10-14T20:41:04.711Z,14.53
2022-10-14T20:43:32.256Z,14.52
2022-10-14T20:45:59.886Z,14.48
2022-10-14T20:48:27.532Z,14.58
2022-10-14T20:50:55.107Z,14.62
2022-10-14T20:53:22.755Z,14.56
2022-10-14T20:55:51.778Z,14.62
2022-10-14T20:58:20.867Z,14.60
2022-10-14T21:00:48.497Z,14.54
2022-10-14T21:03:16.351Z,14.61
2022-10-14T21:05:44.979Z,14.59
2022-10-14T21:08:12.642Z,14.52
2022-10-14T21:10:40.547Z,14.57
2022-10-14T21:13:09.483Z,14.55
2022-10-14T21:15:37.021Z,14.62
2022-10-14T21:18:04.768Z,14.59
2022-10-14T21:20:35.422Z,14.55
2022-10-14T21:23:02.999Z,14.52
2022-10-14T21:25:30.601Z,14.49
2022-10-14T21:27:58.177Z,14.42
2022-10-14T21:30:27.175Z,14.48
2022-10-14T21:32:54.747Z,14.45
2022-10-14T21:35:22.313Z,14.49
2022-10-14T21:37:49.810Z,14.52
2022-10-14T21:40:17.465Z,14.54
2022-10-14T21:42:45.060Z,14.52
2022-10-14T21:45:12.648Z,14.55
2022-10-14T21:47:41.653Z,14.51
2022-10-14T21:50:10.015Z,14.48
2022-10-14T21:52:37.595Z,14.50
2022-10-14T21:55:05.715Z,14.50
2022-10-14T21:57:33.290Z,14.57
2022-10-14T22:00:00.852Z,14.53
2022-10-14T22:02:28.443Z,14.55
2022-10-14T22:04:57.362Z,14.45
2022-10-14T22:07:25.403Z,14.41
2022-10-14T22:09:53.256Z,14.48
2022-10-14T22:12:20.769Z,14.47
2022-10-14T22:14:48.300Z,14.58
2022-10-14T22:17:16.115Z,14.59
2022-10-14T22:19:43.698Z,14.57
2022-10-14T22:22:12.623Z,14.47
2022-10-14T22:24:40.248Z,14.60
2022-10-14T22:27:07.830Z,14.53
2022-10-14T22:29:35.509Z,14.61
2022-10-14T22:32:02.998Z,14.56
2022-10-14T22:34:30.532Z,14.57
2022-10-14T22:36:59.472Z,14.60
2022-10-14T22:39:28.414Z,14.61
2022-10-14T22:41:56.000Z,14.59
2022-10-14T22:44:23.521Z,14.58
2022-10-14T22:46:51.081Z,14.53
2022-10-14T22:49:18.720Z,14.60
2022-10-14T22:51:46.322Z,14.58
2022-10-14T22:54:13.837Z,14.57
2022-10-14T22:56:42.857Z,14.65
2022-10-14T22:59:11.698Z,14.66
2022-10-14T23:01:45.420Z,14.70
2022-10-14T23:04:13.005Z,14.64
2022-10-14T23:06:43.627Z,14.70
2022-10-14T23:09:11.464Z,14.68
2022-10-14T23:11:39.270Z,14.60
2022-10-14T23:14:08.379Z,14.57
2022-10-14T23:16:36.243Z,14.58
2022-10-14T23:19:04.136Z,14.60
2022-10-14T23:21:32.826Z,14.65
2022-10-14T23:24:02.104Z,14.65
2022-10-14T23:26:33.073Z,14.59
2022-10-14T23:29:01.694Z,14.50
2022-10-14T23:31:38.051Z,14.57
2022-10-14T23:34:08.030Z,14.53
2022-10-14T23:36:35.634Z,14.56
2022-10-14T23:39:03.761Z,14.53
2022-10-14T23:41:31.376Z,14.54
2022-10-14T23:43:58.913Z,14.59
2022-10-14T23:46:26.510Z,14.57
2022-10-14T23:49:07.460Z,14.51
2022-10-14T23:51:48.702Z,14.48
2022-10-14T23:54:16.313Z,14.52
2022-10-14T23:56:43.800Z,14.47
2022-10-14T23:59:11.574Z,14.52
